Nearby METAR Reports



KADS - Dallas/Addison, Texas, USA
Distance from station: SSW 10mi, 16km
Updated: Wed, 27-May-2020 9:54am CDT
Partly cloudy
Partly cloudy
 Wind from calm
Wind: Calm
Temperature: 73°F , 23°C
Dew Point: 59°F , 15°C
Humidity: 61%
Barometer: 29.93 inHg , 1013.5 hPa
Clouds: Partly cloudy
Visibility: 13 miles , 21 km
Cloud details: Partly cloudy 6000 ft
2020/05/27 14:54 KADS 271454Z 00000KT 13SM SCT060 23/15 A2993
KTKI - Mckinney, Texas, USA
Distance from station: ENE 11mi, 18km
Updated: Wed, 27-May-2020 9:53am CDT
Clear
Clear
 Wind from calm
Wind: Calm
Temperature: 70°F , 21°C
Dew Point: 61°F , 16°C
Humidity: 73%
Barometer: 29.93 inHg , 1013.5 hPa
Clouds: Clear
Visibility: 10 miles , 16 km
2020/05/27 14:53 KTKI 271453Z 00000KT 10SM CLR 21/16 A2993 RMK AO2 SLP135 T02110161 51008
 
KDAL - Dallas/Love Fld, Texas, USA
Distance from station: SSW 18mi, 30km
Updated: Wed, 27-May-2020 9:53am CDT
Mostly cloudy
Mostly cloudy
 Wind from varies
Wind: varies 5 mph , 7 km/h
Temperature: 73°F , 23°C
Dew Point: 59°F , 15°C
Humidity: 61%
Barometer: 29.92 inHg , 1013.2 hPa
Clouds: Mostly cloudy
Visibility: 10 miles , 16 km
Cloud details: Few Clouds 1000 ft
Few Clouds 12000 ft
Partly cloudy 20000 ft
Mostly cloudy 25000 ft
2020/05/27 14:53 KDAL 271453Z VRB04KT 10SM FEW010 FEW120 SCT200 BKN250 23/15 A2992 RMK AO2 SLP126 FU FEW010 W T02330150 51006
KDFW - Dallas/Ft Worth, Texas, USA
Distance from station: SW 21mi, 34km
Updated: Wed, 27-May-2020 9:53am CDT
Mostly cloudy
Mostly cloudy
 Wind from SSW
Wind: SSW 5 mph , 7 km/h
Temperature: 73°F , 23°C
Dew Point: 63°F , 17°C
Humidity: 69%
Barometer: 29.91 inHg , 1012.9 hPa
Clouds: Mostly cloudy
Visibility: 10 miles , 16 km
Cloud details: Few Clouds 12000 ft
Partly cloudy 17000 ft
Mostly cloudy 21000 ft
2020/05/27 14:53 KDFW 271453Z 21004KT 10SM FEW120 SCT170 BKN210 23/17 A2991 RMK AO2 SLP121 SHRA DSNT SW-NW T02330172 53006
 
KF46 - Rockwall, Texas, USA
Distance from station: ESE 22mi, 35km
Updated: Wed, 27-May-2020 10:15am CDT
Clear
Clear
 Wind from calm
Wind: Calm
Temperature: 73°F , 23°C
Dew Point: 63°F , 17°C
Humidity: 69%
Barometer: 29.93 inHg , 1013.5 hPa
Clouds: Clear
Visibility: 10 miles , 16 km
2020/05/27 15:15 KF46 271515Z AUTO 00000KT 10SM CLR 23/17 A2993 RMK AO2 T02330167
KDTO - Denton, Texas, USA
Distance from station: WNW 27mi, 43km
Updated: Wed, 27-May-2020 9:53am CDT
Clear
Clear
 Wind from S
Wind: S 5 mph , 7 km/h
Temperature: 72°F , 22°C
Dew Point: 63°F , 17°C
Humidity: 73%
Barometer: 29.92 inHg , 1013.2 hPa
Clouds: Clear
Visibility: 10 miles , 16 km
2020/05/27 14:53 KDTO 271453Z 18004KT 10SM CLR 22/17 A2992 RMK AO2 SLP126 T02220167 50006
 
KHQZ - Mesquite, Texas, USA
Distance from station: SSE 28mi, 44km
Updated: Wed, 27-May-2020 9:50am CDT
Clear
Clear
 Wind from calm
Wind: Calm
Temperature: 72°F , 22°C
Dew Point: 63°F , 17°C
Humidity: 73%
Barometer: 29.93 inHg , 1013.5 hPa
Clouds: Clear
Visibility: 10 miles , 16 km
2020/05/27 14:50 KHQZ 271450Z 00000KT 10SM CLR 22/17 A2993
KRBD - Dallas/Redbird, Texas, USA
Distance from station: SSW 30mi, 48km
Updated: Wed, 27-May-2020 9:53am CDT
Clear
Clear
 Wind from calm
Wind: Calm
Temperature: 73°F , 23°C
Dew Point: 61°F , 16°C
Humidity: 65%
Barometer: 29.92 inHg , 1013.2 hPa
Clouds: Clear
Visibility: 10 miles , 16 km
2020/05/27 14:53 KRBD 271453Z 00000KT 10SM CLR 23/16 A2992 RMK AO2 SLP124 T02280156 51007
 
KGPM - Grand Prairie, Texas, USA
Distance from station: SSW 33mi, 53km
Updated: Wed, 27-May-2020 9:50am CDT
Clear
Clear
 Wind from calm
Wind: Calm
Temperature: 72°F , 22°C
Dew Point: 59°F , 15°C
Humidity: 65%
Barometer: 29.94 inHg , 1013.9 hPa
Clouds: Clear
Visibility: 10 miles , 16 km
2020/05/27 14:50 KGPM 271450Z 00000KT 10SM SKC 22/15 A2994
KAFW - Ft Worth/Allianc, Texas, USA
Distance from station: WSW 34mi, 55km
Updated: Wed, 27-May-2020 9:53am CDT
Mostly cloudy
Mostly cloudy
 Wind from calm
Wind: Calm
Temperature: 72°F , 22°C
Dew Point: 63°F , 17°C
Humidity: 73%
Barometer: 29.92 inHg , 1013.2 hPa
Clouds: Mostly cloudy
Visibility: 10 miles , 16 km
Cloud details: Few Clouds 3500 ft
Partly cloudy 12000 ft
Mostly cloudy 19000 ft
Mostly cloudy 28000 ft
2020/05/27 14:53 KAFW 271453Z 00000KT 10SM FEW035 SCT120 BKN190 BKN280 22/17 A2992 RMK AO2 SLP123 T02220167 53009
 
KLNC - Lancaster, Texas, USA
Distance from station: S 36mi, 58km
Updated: Wed, 27-May-2020 10:15am CDT
Clear
Clear
 Wind from calm
Wind: Calm
Temperature: 73°F , 23°C
Dew Point: 61°F , 16°C
Humidity: 65%
Barometer: 29.94 inHg , 1013.9 hPa
Clouds: Clear
Visibility: 10 miles , 16 km
2020/05/27 15:15 KLNC 271515Z AUTO 00000KT 10SM CLR 23/16 A2994 RMK AO2 LTG DSNT E T02270164
KGKY - Arlington, Texas, USA
Distance from station: SSW 36mi, 59km
Updated: Wed, 27-May-2020 9:53am CDT
Clear
Clear
 Wind from SSE
Wind: SSE 3 mph , 6 km/h
Temperature: 75°F , 24°C
Dew Point: 61°F , 16°C
Humidity: 61%
Barometer: 29.92 inHg , 1013.2 hPa
Clouds: Clear
Visibility: 10 miles , 16 km
2020/05/27 14:53 KGKY 271453Z 16003KT 10SM CLR 24/16 A2992 RMK AO2 SLP126 T02390161 53008
 
KTRL - Terrell, Texas, USA
Distance from station: SE 39mi, 63km
Updated: Wed, 27-May-2020 9:53am CDT
Clear
Clear
 Wind from calm
Wind: Calm
Temperature: 73°F , 23°C
Dew Point: 63°F , 17°C
Humidity: 69%
Barometer: 29.93 inHg , 1013.5 hPa
Clouds: Clear
Visibility: 10 miles , 16 km
2020/05/27 14:53 KTRL 271453Z AUTO 00000KT 10SM CLR 23/17 A2993 RMK AO2 SLP130 T02280167 51007
KGVT - Greenville/Major, Texas, USA
Distance from station: E 40mi, 64km
Updated: Wed, 27-May-2020 10:10am CDT
Clear
Clear
 Wind from SW
Wind: SW 5 mph , 7 km/h
Temperature: 73°F , 23°C
Dew Point: 63°F , 17°C
Humidity: 69%
Barometer: 29.93 inHg , 1013.5 hPa
Clouds: Clear
Visibility: 10 miles , 16 km
2020/05/27 15:10 KGVT 271510Z AUTO 22004KT 10SM CLR 23/17 A2993 RMK AO2
 
KFTW - Fort Worth, Texas, USA
Distance from station: WSW 40mi, 65km
Updated: Wed, 27-May-2020 9:53am CDT
Partly cloudy
Partly cloudy
 Wind from calm
Wind: Calm
Temperature: 70°F , 21°C
Dew Point: 61°F , 16°C
Humidity: 73%
Barometer: 29.93 inHg , 1013.5 hPa
Clouds: Partly cloudy
Visibility: 10 miles , 16 km
Cloud details: Partly cloudy 12000 ft
2020/05/27 14:53 KFTW 271453Z 00000KT 10SM SCT120 21/16 A2993 RMK AO2 LTG DSNT SW SLP127 T02110156 53011
KGYI - Sherman/Denison, Texas, USA
Distance from station: N 43mi, 69km
Updated: Wed, 27-May-2020 9:50am CDT
Clear
Clear
 Wind from W
Wind: W 5 mph , 7 km/h
Temperature: 72°F , 22°C
Dew Point: 63°F , 17°C
Humidity: 73%
Barometer: 29.94 inHg , 1013.9 hPa
Clouds: Clear
Visibility: 10 miles , 16 km
2020/05/27 14:50 KGYI 271450Z 26004KT 10SM CLR 22/17 A2994
 
KNFW - Fort Worth Nas, Texas, USA
Distance from station: WSW 45mi, 73km
Updated: Wed, 27-May-2020 9:52am CDT
Mostly cloudy
Mostly cloudy
 Wind from NNE
Wind: NNE 5 mph , 7 km/h
Temperature: 72°F , 22°C
Dew Point: 63°F , 17°C
Humidity: 73%
Barometer: 29.94 inHg , 1013.9 hPa
Clouds: Mostly cloudy
Visibility: 10 miles , 16 km
Cloud details: Few Clouds 7500 ft
Mostly cloudy 12000 ft
Mostly cloudy 25000 ft
2020/05/27 14:52 KNFW 271452Z 02004KT 10SM FEW075 BKN120 BKN250 22/17 A2994 RMK AO2 SLP121 CB 24SW MOV SE T02170167 53012 VISNO N $
KGLE - Gainesville, Texas, USA
Distance from station: NW 46mi, 74km
Updated: Wed, 27-May-2020 10:15am CDT
Clear
Clear
 Wind from calm
Wind: Calm
Temperature: 70°F , 21°C
Dew Point: 59°F , 15°C
Humidity: 69%
Barometer: 29.93 inHg , 1013.5 hPa
Clouds: Clear
Visibility: 10 miles , 16 km
2020/05/27 15:15 KGLE 271515Z AUTO 00000KT 10SM CLR 21/15 A2993 RMK AO2 T02120151 PWINO
 
KJWY - Midlothian/Wax, Texas, USA
Distance from station: SSW 46mi, 74km
Updated: Wed, 27-May-2020 10:15am CDT
Clear
Clear
 Wind from calm
Wind: Calm
Temperature: 73°F , 23°C
Dew Point: 64°F , 18°C
Humidity: 74%
Barometer: 29.94 inHg , 1013.9 hPa
Clouds: Clear
Visibility: 10 miles , 16 km
2020/05/27 15:15 KJWY 271515Z AUTO 00000KT 10SM CLR 23/18 A2994 RMK AO2 T02280179
KFWS - Fort Worth/88d, Texas, USA
Distance from station: SW 49mi, 79km
Updated: Wed, 27-May-2020 9:50am CDT
Partly cloudy
Partly cloudy
 Wind from calm
Wind: Calm
Temperature: 73°F , 23°C
Dew Point: 61°F , 16°C
Humidity: 65%
Barometer: 29.93 inHg , 1013.5 hPa
Clouds: Partly cloudy
Visibility: 10 miles , 16 km
Cloud details: Partly cloudy 12000 ft
2020/05/27 14:50 KFWS 271450Z 00000KT 10SM SCT120 23/16 A2993